createdAt,value
2023-02-05T00:00:18.926Z,40.80
2023-02-05T00:02:48.248Z,39.08
2023-02-05T00:05:16.007Z,45.38
2023-02-05T00:07:43.967Z,40.35
2023-02-05T00:10:11.584Z,40.58
2023-02-05T00:12:39.618Z,39.63
2023-02-05T00:15:07.670Z,40.47
2023-02-05T00:17:36.739Z,43.08
2023-02-05T00:20:05.854Z,40.97
2023-02-05T00:22:33.445Z,42.85
2023-02-05T00:25:01.120Z,41.33
2023-02-05T00:27:28.877Z,43.72
2023-02-05T00:29:56.731Z,40.08
2023-02-05T00:32:24.303Z,39.85
2023-02-05T00:34:52.015Z,39.55
2023-02-05T00:37:20.291Z,40.75
2023-02-05T00:39:48.099Z,41.63
2023-02-05T00:42:15.588Z,44.22
2023-02-05T00:44:43.462Z,44.60
2023-02-05T00:47:11.061Z,39.97
2023-02-05T00:49:39.610Z,42.63
2023-02-05T00:52:07.207Z,41.72
2023-02-05T00:54:35.293Z,47.28
2023-02-05T00:57:02.969Z,44.28
2023-02-05T00:59:30.685Z,45.67
2023-02-05T01:01:58.421Z,49.47
2023-02-05T01:04:25.992Z,49.38
2023-02-05T01:06:53.603Z,49.08
2023-02-05T01:09:22.580Z,52.45
2023-02-05T01:11:50.125Z,45.15
2023-02-05T01:14:17.773Z,53.58
2023-02-05T01:16:45.664Z,52.78
2023-02-05T01:19:13.536Z,55.83
2023-02-05T01:21:41.412Z,54.28
2023-02-05T01:24:09.181Z,58.00
2023-02-05T01:26:36.788Z,60.28
2023-02-05T01:29:04.640Z,61.78
2023-02-05T01:31:33.584Z,64.18
2023-02-05T01:34:01.824Z,64.88
2023-02-05T01:36:29.652Z,69.78
2023-02-05T01:38:57.227Z,63.15
2023-02-05T01:41:25.012Z,68.63
2023-02-05T01:44:12.105Z,81.93
2023-02-05T01:46:41.439Z,70.00
2023-02-05T01:49:12.839Z,79.03
2023-02-05T01:51:40.733Z,83.40
2023-02-05T01:54:08.985Z,75.47
2023-02-05T01:56:41.238Z,79.28
2023-02-05T01:59:17.929Z,77.53
2023-02-05T02:01:46.927Z,74.13
2023-02-05T02:04:17.266Z,76.22
2023-02-05T02:06:45.493Z,74.78
2023-02-05T02:09:13.549Z,71.40
2023-02-05T02:11:41.932Z,71.47
2023-02-05T02:14:11.249Z,72.93
2023-02-05T02:16:39.011Z,72.68
2023-02-05T02:19:10.869Z,66.45
2023-02-05T02:22:13.197Z,62.33
2023-02-05T02:24:49.487Z,59.33
2023-02-05T02:27:36.183Z,53.25
2023-02-05T02:30:19.367Z,50.67
2023-02-05T02:33:15.073Z,53.42
2023-02-05T02:35:58.194Z,49.60
2023-02-05T02:38:34.557Z,48.20
2023-02-05T02:41:10.534Z,48.35
2023-02-05T02:43:48.938Z,46.63
2023-02-05T02:46:44.610Z,40.85
2023-02-05T02:49:19.171Z,48.20
2023-02-05T02:51:47.014Z,49.97
2023-02-05T02:54:15.966Z,48.00
2023-02-05T02:56:43.735Z,45.20
2023-02-05T02:59:14.120Z,40.33
2023-02-05T03:01:52.340Z,40.75
2023-02-05T03:04:28.016Z,47.03
2023-02-05T03:06:58.148Z,47.40
2023-02-05T03:09:32.785Z,41.03
2023-02-05T03:12:01.952Z,41.17
2023-02-05T03:14:30.938Z,42.83
2023-02-05T03:17:00.630Z,41.95
2023-02-05T03:19:32.487Z,41.88
2023-02-05T03:22:03.011Z,38.42
2023-02-05T03:24:31.730Z,41.85
2023-02-05T03:26:59.746Z,38.85
2023-02-05T03:29:31.219Z,42.33
2023-02-05T03:32:21.382Z,40.00
2023-02-05T03:35:05.252Z,40.35
2023-02-05T03:37:52.764Z,39.53
2023-02-05T03:40:51.865Z,39.67
2023-02-05T03:43:25.710Z,35.15
2023-02-05T03:46:29.535Z,33.25
2023-02-05T03:49:14.814Z,39.72
2023-02-05T03:52:10.086Z,35.67
2023-02-05T03:54:50.612Z,41.95
2023-02-05T03:57:33.067Z,42.10
2023-02-05T04:00:01.391Z,38.15
2023-02-05T04:02:30.240Z,38.95
2023-02-05T04:04:58.191Z,41.03
2023-02-05T04:07:26.052Z,39.38
2023-02-05T04:09:53.728Z,37.38
2023-02-05T04:12:22.958Z,37.30
2023-02-05T04:14:50.539Z,40.35
2023-02-05T04:17:18.302Z,38.90
2023-02-05T04:19:46.959Z,39.53
2023-02-05T04:22:15.880Z,42.42
2023-02-05T04:24:49.762Z,38.67
2023-02-05T04:27:18.080Z,41.65
2023-02-05T04:29:45.654Z,39.95
2023-02-05T04:32:13.515Z,44.70
2023-02-05T04:34:41.213Z,60.50
2023-02-05T04:37:11.666Z,73.80
2023-02-05T04:39:40.786Z,79.38
2023-02-05T04:42:08.549Z,110.07
2023-02-05T04:44:36.333Z,115.95
2023-02-05T04:47:04.237Z,86.43
2023-02-05T04:49:33.537Z,67.35
2023-02-05T04:52:01.147Z,59.30
2023-02-05T04:54:28.988Z,89.43
2023-02-05T04:56:56.674Z,85.05
2023-02-05T04:59:24.397Z,63.95
2023-02-05T05:01:52.030Z,66.15
2023-02-05T05:04:19.597Z,60.88
2023-02-05T05:06:47.363Z,60.50
2023-02-05T05:09:15.065Z,65.15
2023-02-05T05:11:43.201Z,67.20
2023-02-05T05:14:10.852Z,75.35
2023-02-05T05:16:38.416Z,65.70
2023-02-05T05:19:06.236Z,57.50
2023-02-05T05:21:33.810Z,55.65
2023-02-05T05:24:01.589Z,48.72
2023-02-05T05:26:30.223Z,51.15
2023-02-05T05:28:57.890Z,45.40
2023-02-05T05:31:25.595Z,45.53
2023-02-05T05:33:53.424Z,47.88
2023-02-05T05:36:21.012Z,44.13
2023-02-05T05:38:48.594Z,51.97
2023-02-05T05:41:43.796Z,50.83
2023-02-05T05:44:11.459Z,45.70
2023-02-05T05:46:40.949Z,53.50
2023-02-05T05:49:08.557Z,52.20
2023-02-05T05:51:36.108Z,50.17
2023-02-05T05:54:04.300Z,52.97
2023-02-05T05:56:31.868Z,54.15
2023-02-05T05:58:59.387Z,53.70
2023-02-05T06:01:26.951Z,49.30
2023-02-05T06:03:54.530Z,51.80
2023-02-05T06:06:22.100Z,44.78
2023-02-05T06:08:49.960Z,45.08
2023-02-05T06:11:17.745Z,48.92
2023-02-05T06:13:45.624Z,54.00
2023-02-05T06:16:13.706Z,49.35
2023-02-05T06:18:42.261Z,44.45
2023-02-05T06:21:10.903Z,40.35
2023-02-05T06:23:39.326Z,41.95
2023-02-05T06:26:07.020Z,41.50
2023-02-05T06:28:35.064Z,44.35
2023-02-05T06:31:03.499Z,45.35
2023-02-05T06:33:31.377Z,50.58
2023-02-05T06:35:58.945Z,65.72
2023-02-05T06:38:26.733Z,65.15
2023-02-05T06:40:54.405Z,49.45
2023-02-05T06:43:22.129Z,40.92
2023-02-05T06:45:49.691Z,39.30
2023-02-05T06:48:18.346Z,40.85
2023-02-05T06:50:46.393Z,41.40
2023-02-05T06:53:14.172Z,38.95
2023-02-05T06:55:41.754Z,39.20
2023-02-05T06:58:09.421Z,38.65
2023-02-05T07:00:37.233Z,39.28
2023-02-05T07:03:05.008Z,40.00
2023-02-05T07:05:35.004Z,42.38
2023-02-05T07:08:04.317Z,48.15
2023-02-05T07:10:32.323Z,31.35
2023-02-05T07:12:59.959Z,36.95
2023-02-05T07:15:27.460Z,47.17
2023-02-05T07:17:55.500Z,53.28
2023-02-05T07:20:23.529Z,46.35
2023-02-05T07:22:51.143Z,30.35
2023-02-05T07:25:18.729Z,38.00
2023-02-05T07:27:46.561Z,33.67
2023-02-05T07:30:15.093Z,33.05
2023-02-05T07:32:42.691Z,38.75
2023-02-05T07:35:10.230Z,41.80
2023-02-05T07:37:39.601Z,77.25
2023-02-05T07:40:08.031Z,88.63
2023-02-05T07:42:35.841Z,52.92
2023-02-05T07:45:04.979Z,40.85
2023-02-05T07:47:32.845Z,40.67
2023-02-05T07:50:00.565Z,39.60
2023-02-05T07:52:28.455Z,37.60
2023-02-05T07:54:55.975Z,37.97
2023-02-05T07:57:23.897Z,34.28
2023-02-05T07:59:52.656Z,29.58
2023-02-05T08:02:20.729Z,34.03
2023-02-05T08:04:48.271Z,35.40
2023-02-05T08:07:16.167Z,37.40
2023-02-05T08:09:47.686Z,39.10
2023-02-05T08:12:15.791Z,33.83
2023-02-05T08:14:43.545Z,33.33
2023-02-05T08:17:11.138Z,38.25
2023-02-05T08:19:39.066Z,41.22
2023-02-05T08:22:06.845Z,33.92
2023-02-05T08:24:34.412Z,36.95
2023-02-05T08:27:02.327Z,33.05
2023-02-05T08:29:30.189Z,31.85
2023-02-05T08:31:57.944Z,35.38
2023-02-05T08:34:25.581Z,36.38
2023-02-05T08:36:53.280Z,35.40
2023-02-05T08:39:20.987Z,26.15
2023-02-05T08:41:48.679Z,28.40
2023-02-05T08:44:16.278Z,29.38
2023-02-05T08:46:50.127Z,38.30
2023-02-05T08:49:18.536Z,30.17
2023-02-05T08:51:46.467Z,40.63
2023-02-05T08:54:15.374Z,25.10
2023-02-05T08:56:43.882Z,24.05
2023-02-05T08:59:12.373Z,31.05
2023-02-05T09:01:43.244Z,27.95
2023-02-05T09:04:17.943Z,25.90
2023-02-05T09:06:45.551Z,35.10
2023-02-05T09:09:13.486Z,29.73
2023-02-05T09:11:41.743Z,29.92
2023-02-05T09:14:10.026Z,30.20
2023-02-05T09:16:38.223Z,38.17
2023-02-05T09:19:05.955Z,23.88
2023-02-05T09:21:35.672Z,25.70
2023-02-05T09:24:03.963Z,25.10
2023-02-05T09:26:31.614Z,27.00
2023-02-05T09:28:59.481Z,26.20
2023-02-05T09:31:27.180Z,29.02
2023-02-05T09:33:56.002Z,23.63
2023-02-05T09:36:23.839Z,26.88
2023-02-05T09:39:02.001Z,32.28
2023-02-05T09:44:25.143Z,33.67
2023-02-05T09:46:52.672Z,28.42
2023-02-05T09:49:38.691Z,26.92
2023-02-05T09:52:21.894Z,30.65
2023-02-05T09:54:52.446Z,41.88
2023-02-05T09:57:49.358Z,32.45
2023-02-05T10:00:29.503Z,27.88
2023-02-05T10:02:59.097Z,20.52
2023-02-05T10:05:26.923Z,89.68
2023-02-05T10:08:07.127Z,31.83
2023-02-05T10:10:39.659Z,66.30
2023-02-05T10:13:27.837Z,39.17
2023-02-05T10:16:04.750Z,27.05
2023-02-05T10:19:01.104Z,24.27
2023-02-05T10:21:52.069Z,33.35
2023-02-05T10:24:38.508Z,37.92
2023-02-05T10:27:13.950Z,22.35
2023-02-05T10:29:53.957Z,31.90
2023-02-05T10:32:25.868Z,26.50
2023-02-05T10:35:01.604Z,25.98
2023-02-05T10:37:45.133Z,29.83
2023-02-05T10:40:18.404Z,32.60
2023-02-05T10:43:27.309Z,34.95
2023-02-05T10:45:54.912Z,32.45
2023-02-05T10:48:24.472Z,28.70
2023-02-05T10:51:01.408Z,25.83
2023-02-05T10:53:29.416Z,30.38
2023-02-05T10:55:57.833Z,28.40
2023-02-05T10:58:39.213Z,34.05
2023-02-05T11:01:27.711Z,28.60
2023-02-05T11:04:00.311Z,28.00
2023-02-05T11:06:29.837Z,37.83
2023-02-05T11:08:57.750Z,31.70
2023-02-05T11:11:28.511Z,30.38
2023-02-05T11:14:00.893Z,30.08
2023-02-05T11:16:48.756Z,31.80
2023-02-05T11:19:23.239Z,26.90
2023-02-05T11:21:55.779Z,22.70
2023-02-05T11:24:28.733Z,22.42
2023-02-05T11:27:18.135Z,15.93
2023-02-05T11:29:45.897Z,16.58
2023-02-05T11:32:38.089Z,31.85
2023-02-05T11:35:25.371Z,28.55
2023-02-05T11:38:10.407Z,33.88
2023-02-05T11:40:38.212Z,24.60
2023-02-05T11:43:25.134Z,27.02
2023-02-05T11:45:53.120Z,20.45
2023-02-05T11:48:44.962Z,22.20
2023-02-05T11:51:15.390Z,21.15
2023-02-05T11:53:51.003Z,19.10
2023-02-05T11:56:22.820Z,22.63
2023-02-05T11:59:05.163Z,24.27
2023-02-05T12:01:34.229Z,18.45
2023-02-05T12:04:17.194Z,24.08
2023-02-05T12:06:53.626Z,25.35
2023-02-05T12:09:23.366Z,24.50
2023-02-05T12:12:11.849Z,26.65
2023-02-05T12:15:10.280Z,21.30
2023-02-05T12:17:50.865Z,19.85
2023-02-05T12:20:23.064Z,22.75
2023-02-05T12:23:23.731Z,25.17
2023-02-05T12:25:58.515Z,22.87
2023-02-05T12:28:42.766Z,21.30
2023-02-05T12:31:19.938Z,20.80
2023-02-05T12:34:02.517Z,22.88
2023-02-05T12:36:46.280Z,22.13
2023-02-05T12:39:33.690Z,22.80
2023-02-05T12:42:26.498Z,22.88
2023-02-05T12:44:57.743Z,23.27
2023-02-05T12:47:38.577Z,22.15
2023-02-05T12:50:19.403Z,31.48
2023-02-05T12:53:24.569Z,21.17
2023-02-05T12:56:11.092Z,23.08
2023-02-05T12:59:10.764Z,27.67
2023-02-05T13:02:11.248Z,29.38
2023-02-05T13:04:40.700Z,30.30
2023-02-05T13:07:18.345Z,31.30
2023-02-05T13:09:49.271Z,33.15
2023-02-05T13:12:19.063Z,26.60
2023-02-05T13:15:00.574Z,36.42
2023-02-05T13:17:29.541Z,41.97
2023-02-05T13:19:58.470Z,37.20
2023-02-05T13:22:45.046Z,36.03
2023-02-05T13:25:59.583Z,41.75
2023-02-05T13:28:42.781Z,39.92
2023-02-05T13:31:32.019Z,46.50
2023-02-05T13:34:07.009Z,42.50
2023-02-05T13:36:57.634Z,39.08
2023-02-05T13:39:47.531Z,40.57
2023-02-05T13:42:35.845Z,54.28
2023-02-05T13:45:37.956Z,48.85
2023-02-05T13:48:10.410Z,38.63
2023-02-05T13:50:41.622Z,33.60
2023-02-05T13:53:44.064Z,30.02
2023-02-05T13:56:24.557Z,30.05
2023-02-05T13:58:56.706Z,26.15
2023-02-05T14:01:29.844Z,26.15
2023-02-05T14:04:07.299Z,25.35
2023-02-05T14:06:39.106Z,25.00
2023-02-05T14:09:25.149Z,28.02
2023-02-05T14:11:57.610Z,34.63
2023-02-05T14:14:29.189Z,34.92
2023-02-05T14:16:59.256Z,30.90
2023-02-05T14:19:46.253Z,30.33
2023-02-05T14:22:35.338Z,36.35
2023-02-05T14:25:03.021Z,33.08
2023-02-05T14:27:31.442Z,36.70
2023-02-05T14:29:59.719Z,35.80
2023-02-05T14:32:27.423Z,37.30
2023-02-05T14:35:02.300Z,42.38
2023-02-05T14:37:40.903Z,45.53
2023-02-05T14:40:38.004Z,49.80
2023-02-05T14:43:22.768Z,63.72
2023-02-05T14:45:51.428Z,53.53
2023-02-05T14:48:27.165Z,48.22
2023-02-05T14:51:31.664Z,55.58
2023-02-05T14:54:07.199Z,50.42
2023-02-05T14:56:37.618Z,53.28
2023-02-05T14:59:17.877Z,46.60
2023-02-05T15:01:46.838Z,44.95
2023-02-05T15:04:40.749Z,45.53
2023-02-05T15:07:14.478Z,41.00
2023-02-05T15:09:46.302Z,40.30
2023-02-05T15:12:34.334Z,42.38
2023-02-05T15:15:27.883Z,33.97
2023-02-05T15:17:58.243Z,29.85
2023-02-05T15:20:27.899Z,35.58
2023-02-05T15:23:05.382Z,37.63
2023-02-05T15:25:42.681Z,46.40
2023-02-05T15:28:20.579Z,32.35
2023-02-05T15:31:05.854Z,39.85
2023-02-05T15:33:40.250Z,47.40
2023-02-05T15:36:13.293Z,38.40
2023-02-05T15:39:02.846Z,28.95
2023-02-05T15:41:31.027Z,29.83
2023-02-05T15:44:02.710Z,29.52
2023-02-05T15:46:32.784Z,35.55
2023-02-05T15:49:00.474Z,40.67
2023-02-05T15:51:34.508Z,38.28
2023-02-05T15:54:03.390Z,38.50
2023-02-05T15:56:39.558Z,32.22
2023-02-05T15:59:10.271Z,34.70
2023-02-05T16:01:49.448Z,39.88
2023-02-05T16:04:23.058Z,35.40
2023-02-05T16:06:55.271Z,34.75
2023-02-05T16:09:25.190Z,35.25
2023-02-05T16:11:54.223Z,26.10
2023-02-05T16:14:28.808Z,34.85
2023-02-05T16:17:07.923Z,39.80
2023-02-05T16:19:46.430Z,41.13
2023-02-05T16:22:36.209Z,38.38
2023-02-05T16:25:07.325Z,33.58
2023-02-05T16:30:08.123Z,34.22
2023-02-05T16:32:40.008Z,34.90
2023-02-05T16:35:12.986Z,30.42
2023-02-05T16:37:40.699Z,29.40
2023-02-05T16:40:09.843Z,30.05
2023-02-05T16:42:43.360Z,41.35
2023-02-05T16:45:11.056Z,32.45
2023-02-05T16:47:39.283Z,30.00
2023-02-05T16:50:37.484Z,36.60
2023-02-05T16:53:16.915Z,36.55
2023-02-05T16:55:44.587Z,22.27
2023-02-05T16:58:22.347Z,35.20
2023-02-05T17:01:00.952Z,34.70
2023-02-05T17:03:31.279Z,31.80
2023-02-05T17:06:00.709Z,25.40
2023-02-05T17:08:33.535Z,30.70
2023-02-05T17:11:06.785Z,32.55
2023-02-05T17:13:42.571Z,19.73
2023-02-05T17:16:29.971Z,29.20
2023-02-05T17:19:25.482Z,24.17
2023-02-05T17:22:27.721Z,31.65
2023-02-05T17:24:55.488Z,31.65
2023-02-05T17:27:30.643Z,32.72
2023-02-05T17:29:58.922Z,27.35
2023-02-05T17:32:26.565Z,26.42
2023-02-05T17:34:54.539Z,28.00
2023-02-05T17:37:22.117Z,25.08
2023-02-05T17:39:51.696Z,40.00
2023-02-05T17:42:23.959Z,33.90
2023-02-05T17:44:51.878Z,27.63
2023-02-05T17:47:20.278Z,36.33
2023-02-05T17:49:48.015Z,37.75
2023-02-05T17:52:15.828Z,31.88
2023-02-05T17:54:46.338Z,33.50
2023-02-05T17:57:21.382Z,35.67
2023-02-05T17:59:49.626Z,30.55
2023-02-05T18:02:17.581Z,28.83
2023-02-05T18:04:46.493Z,31.52
2023-02-05T18:07:40.149Z,36.05
2023-02-05T18:10:12.834Z,28.25
2023-02-05T18:12:40.490Z,30.67
2023-02-05T18:15:08.744Z,31.98
2023-02-05T18:17:37.544Z,38.83
2023-02-05T18:20:06.045Z,33.20
2023-02-05T18:22:34.443Z,31.92
2023-02-05T18:25:02.378Z,30.20
2023-02-05T18:27:30.971Z,34.05
2023-02-05T18:29:58.655Z,32.72
2023-02-05T18:32:26.408Z,37.33
2023-02-05T18:34:54.202Z,34.85
2023-02-05T18:37:22.419Z,33.05
2023-02-05T18:39:50.960Z,33.45
2023-02-05T18:42:19.768Z,36.08
2023-02-05T18:44:51.238Z,33.38
2023-02-05T18:47:27.640Z,38.13
2023-02-05T18:49:55.305Z,31.42
2023-02-05T18:52:26.700Z,36.40
2023-02-05T18:54:54.369Z,29.38
2023-02-05T18:57:22.327Z,38.97
2023-02-05T18:59:50.319Z,31.20
2023-02-05T19:02:17.916Z,34.58
2023-02-05T19:04:45.822Z,33.00
2023-02-05T19:07:13.617Z,41.72
2023-02-05T19:09:41.210Z,39.25
2023-02-05T19:12:08.703Z,39.95
2023-02-05T19:14:36.826Z,41.72
2023-02-05T19:17:07.245Z,37.95
2023-02-05T19:19:35.328Z,43.28
2023-02-05T19:22:05.457Z,42.38
2023-02-05T19:24:33.752Z,41.83
2023-02-05T19:27:01.908Z,39.95
2023-02-05T19:29:29.947Z,42.88
2023-02-05T19:31:58.766Z,37.70
2023-02-05T19:34:27.925Z,44.08
2023-02-05T19:36:58.583Z,46.92
2023-02-05T19:39:26.394Z,51.70
2023-02-05T19:41:54.134Z,39.15
2023-02-05T19:44:22.868Z,58.67
2023-02-05T19:46:54.185Z,49.65
2023-02-05T19:49:22.082Z,48.33
2023-02-05T19:51:55.250Z,47.00
2023-02-05T19:54:23.021Z,47.40
2023-02-05T19:56:51.198Z,47.55
2023-02-05T19:59:19.037Z,51.65
2023-02-05T20:01:46.788Z,42.92
2023-02-05T20:04:17.207Z,43.25
2023-02-05T20:06:46.389Z,42.90
2023-02-05T20:09:15.662Z,45.10
2023-02-05T20:11:45.023Z,46.65
2023-02-05T20:14:12.630Z,43.22
2023-02-05T20:16:40.603Z,37.38
2023-02-05T20:19:10.228Z,50.08
2023-02-05T20:21:38.713Z,46.05
2023-02-05T20:24:07.575Z,45.95
2023-02-05T20:26:36.060Z,47.22
2023-02-05T20:29:22.868Z,48.03
2023-02-05T20:31:51.983Z,48.08
2023-02-05T20:34:23.820Z,42.95
2023-02-05T20:36:53.891Z,51.33
2023-02-05T20:39:22.923Z,51.50
2023-02-05T20:41:51.491Z,50.90
2023-02-05T20:44:19.238Z,53.33
2023-02-05T20:46:47.071Z,51.22
2023-02-05T20:49:15.808Z,49.08
2023-02-05T20:51:43.564Z,53.05
2023-02-05T20:54:11.485Z,49.17
2023-02-05T20:56:39.402Z,55.30
2023-02-05T20:59:07.730Z,54.17
2023-02-05T21:01:36.404Z,51.55
2023-02-05T21:04:04.626Z,51.75
2023-02-05T21:06:34.196Z,48.10
2023-02-05T21:09:01.986Z,50.28
2023-02-05T21:11:30.163Z,46.63
2023-02-05T21:13:58.812Z,45.72
2023-02-05T21:16:27.595Z,45.10
2023-02-05T21:18:55.344Z,45.55
2023-02-05T21:21:27.737Z,42.65
2023-02-05T21:23:57.084Z,49.55
2023-02-05T21:26:29.440Z,46.65
2023-02-05T21:29:01.626Z,43.88
2023-02-05T21:31:36.157Z,49.05
2023-02-05T21:34:04.654Z,42.72
2023-02-05T21:36:33.550Z,44.17
2023-02-05T21:39:01.179Z,47.42
2023-02-05T21:41:28.942Z,43.85
2023-02-05T21:43:59.112Z,41.90
2023-02-05T21:46:29.420Z,39.15
2023-02-05T21:48:58.229Z,48.13
2023-02-05T21:51:28.079Z,44.65
2023-02-05T21:53:58.777Z,42.90
2023-02-05T21:56:29.353Z,49.05
2023-02-05T21:58:57.223Z,45.90
2023-02-05T22:01:26.810Z,46.75
2023-02-05T22:04:00.709Z,48.72
2023-02-05T22:06:30.505Z,49.90
2023-02-05T22:08:59.296Z,42.75
2023-02-05T22:11:27.016Z,42.00
2023-02-05T22:13:55.116Z,45.53
2023-02-05T22:16:24.425Z,39.45
2023-02-05T22:18:53.269Z,38.43
2023-02-05T22:21:23.121Z,34.33
2023-02-05T22:23:52.036Z,34.38
2023-02-05T22:26:24.062Z,37.38
2023-02-05T22:28:52.323Z,38.22
2023-02-05T22:31:20.533Z,34.47
2023-02-05T22:33:49.307Z,38.75
2023-02-05T22:36:18.787Z,33.47
2023-02-05T22:38:46.571Z,36.33
2023-02-05T22:41:16.809Z,33.25
2023-02-05T22:43:44.747Z,24.85
2023-02-05T22:46:14.155Z,34.92
2023-02-05T22:48:43.136Z,32.53
2023-02-05T22:51:14.008Z,38.28
2023-02-05T22:53:41.897Z,34.00
2023-02-05T22:56:12.729Z,34.65
2023-02-05T22:58:41.650Z,36.88
2023-02-05T23:01:26.025Z,43.90
2023-02-05T23:03:53.791Z,40.35
2023-02-05T23:06:23.571Z,37.70
2023-02-05T23:08:59.156Z,32.05
2023-02-05T23:11:27.637Z,39.67
2023-02-05T23:13:56.301Z,35.38
2023-02-05T23:16:26.118Z,36.67
2023-02-05T23:18:56.299Z,28.27
2023-02-05T23:21:24.934Z,28.05
2023-02-05T23:23:52.994Z,35.45
2023-02-05T23:26:22.300Z,32.92
2023-02-05T23:28:49.951Z,34.92
2023-02-05T23:31:17.829Z,35.70
2023-02-05T23:33:45.474Z,32.20
2023-02-05T23:36:13.247Z,34.45
2023-02-05T23:38:40.904Z,34.28
2023-02-05T23:41:08.672Z,36.25
2023-02-05T23:43:36.922Z,35.05
2023-02-05T23:46:05.367Z,29.63
2023-02-05T23:48:33.381Z,32.80
2023-02-05T23:51:01.071Z,31.75
2023-02-05T23:53:28.654Z,25.08
2023-02-05T23:55:56.346Z,29.08
2023-02-05T23:58:26.147Z,30.58
